Time;durP1;ratioP1;P1;durP2;ratioP2;P2;SDS_P1;SDS_P2;PMS_P1;PMS_P2;Temp;Humidity;BMP_temperature;BMP_pressure;BME280_temperature;BME280_humidity;BME280_pressure;Samples;Min_cycle;Max_cycle;Signal;HPM_P1;HPM_P2
2022/08/17 00:01:49;;;;;;;4.85;4.55;;;;;;;;;;4958835;28;20049;-63
2022/08/17 00:04:16;;;;;;;4.60;4.30;;;;;;;;;;4964027;28;20023;-64
2022/08/17 00:06:42;;;;;;;4.43;4.13;;;;;;;;;;4958043;28;20023;-64
2022/08/17 00:09:08;;;;;;;4.80;4.50;;;;;;;;;;4960067;28;20375;-63
2022/08/17 00:11:38;;;;;;;4.65;4.32;;;;;;;;;;4964068;28;20065;-63
2022/08/17 00:14:07;;;;;;;4.47;4.18;;;;;;;;;;4963886;28;20026;-62
2022/08/17 00:16:41;;;;;;;4.43;4.10;;;;;;;;;;4964526;28;20027;-62
2022/08/17 00:19:09;;;;;;;4.60;4.20;;;;;;;;;;4961088;28;20031;-62
2022/08/17 00:21:35;;;;;;;5.13;4.68;;;;;;;;;;4958190;28;20078;-64
2022/08/17 00:24:01;;;;;;;4.55;4.25;;;;;;;;;;4963582;28;20035;-62
2022/08/17 00:26:27;;;;;;;4.53;4.22;;;;;;;;;;4964272;28;20035;-63
2022/08/17 00:28:53;;;;;;;4.75;4.45;;;;;;;;;;4963169;28;20580;-62
2022/08/17 00:31:18;;;;;;;5.05;4.70;;;;;;;;;;4962698;28;20133;-62
2022/08/17 00:33:44;;;;;;;4.72;4.43;;;;;;;;;;4957276;28;20451;-62
2022/08/17 00:36:13;;;;;;;4.70;4.30;;;;;;;;;;4960421;28;20038;-62
2022/08/17 00:38:39;;;;;;;5.10;4.75;;;;;;;;;;4962701;28;20038;-63
2022/08/17 00:41:07;;;;;;;5.13;4.60;;;;;;;;;;4957982;28;20035;-61
2022/08/17 00:43:55;;;;;;;4.25;4.03;;;;;;;;;;4959009;28;20489;-62
2022/08/17 00:46:22;;;;;;;4.65;4.30;;;;;;;;;;4954441;28;20039;-63
2022/08/17 00:48:48;;;;;;;4.90;4.47;;;;;;;;;;4963899;28;20042;-62
2022/08/17 00:51:33;;;;;;;5.20;4.90;;;;;;;;;;4960392;28;20031;-62
2022/08/17 00:54:17;;;;;;;4.28;3.97;;;;;;;;;;4960058;28;20328;-62
2022/08/17 00:56:46;;;;;;;4.85;4.50;;;;;;;;;;4956471;28;20029;-65
2022/08/17 00:59:12;;;;;;;4.68;4.38;;;;;;;;;;4962441;28;20023;-62
2022/08/17 01:01:38;;;;;;;4.90;4.50;;;;;;;;;;4957714;28;20142;-62
2022/08/17 01:04:04;;;;;;;4.68;4.28;;;;;;;;;;4959009;28;20018;-62
2022/08/17 01:06:30;;;;;;;5.50;4.50;;;;;;;;;;4962473;28;20023;-63
2022/08/17 01:08:56;;;;;;;4.68;4.28;;;;;;;;;;4963317;28;20035;-62
2022/08/17 01:11:21;;;;;;;4.90;4.60;;;;;;;;;;4964672;28;20042;-62
2022/08/17 01:13:47;;;;;;;5.10;4.70;;;;;;;;;;4961749;28;20031;-62
2022/08/17 01:16:23;;;;;;;5.57;5.13;;;;;;;;;;4957801;28;20026;-62
2022/08/17 01:18:50;;;;;;;4.82;4.43;;;;;;;;;;4960827;28;20034;-63
2022/08/17 01:21:32;;;;;;;5.68;5.07;;;;;;;;;;4962897;28;20070;-63
2022/08/17 01:23:57;;;;;;;4.72;4.43;;;;;;;;;;4963364;28;20027;-63
2022/08/17 01:26:22;;;;;;;4.60;4.40;;;;;;;;;;4962893;28;20595;-63
2022/08/17 01:28:47;;;;;;;5.35;4.95;;;;;;;;;;4963033;28;20382;-62
2022/08/17 01:31:13;;;;;;;4.88;4.57;;;;;;;;;;4963984;28;20026;-62
2022/08/17 01:33:38;;;;;;;5.15;4.68;;;;;;;;;;4961313;28;20516;-63
2022/08/17 01:36:05;;;;;;;5.20;4.80;;;;;;;;;;4957604;28;20155;-62
2022/08/17 01:38:30;;;;;;;4.75;4.45;;;;;;;;;;4958686;28;20462;-62
2022/08/17 01:40:59;;;;;;;5.25;4.85;;;;;;;;;;4958074;28;20038;-63
2022/08/17 01:43:27;;;;;;;5.00;4.70;;;;;;;;;;4956832;28;20118;-62
2022/08/17 01:45:54;;;;;;;4.75;4.45;;;;;;;;;;4962123;28;20027;-61
2022/08/17 01:48:19;;;;;;;5.10;4.70;;;;;;;;;;4962241;28;20035;-62
2022/08/17 01:50:46;;;;;;;4.70;4.40;;;;;;;;;;4961488;28;20039;-62
2022/08/17 01:53:16;;;;;;;4.88;4.47;;;;;;;;;;4962147;28;20033;-61
2022/08/17 01:55:45;;;;;;;5.22;4.82;;;;;;;;;;4933513;28;20473;-62
2022/08/17 01:58:11;;;;;;;5.80;5.20;;;;;;;;;;4962119;28;20026;-62
2022/08/17 02:00:37;;;;;;;5.07;4.60;;;;;;;;;;4961900;28;20034;-62
2022/08/17 02:03:06;;;;;;;4.93;4.57;;;;;;;;;;4966542;28;20050;-62
2022/08/17 02:05:32;;;;;;;5.07;4.72;;;;;;;;;;4965427;28;20110;-62
2022/08/17 02:07:58;;;;;;;4.65;4.35;;;;;;;;;;4962566;28;20468;-63
2022/08/17 02:10:24;;;;;;;4.40;4.10;;;;;;;;;;4960028;28;20029;-62
2022/08/17 02:12:49;;;;;;;5.38;4.93;;;;;;;;;;4964484;28;20039;-65
2022/08/17 02:15:19;;;;;;;4.80;4.50;;;;;;;;;;4961193;28;20027;-62
2022/08/17 02:17:45;;;;;;;5.57;5.18;;;;;;;;;;4965436;28;20023;-62
2022/08/17 02:20:10;;;;;;;5.47;4.97;;;;;;;;;;4964880;28;20393;-61
2022/08/17 02:22:38;;;;;;;5.07;4.78;;;;;;;;;;4961335;28;20058;-62
2022/08/17 02:25:04;;;;;;;4.60;4.30;;;;;;;;;;4962032;28;20078;-62
2022/08/17 02:27:29;;;;;;;5.00;4.70;;;;;;;;;;4965648;28;20027;-62
2022/08/17 02:29:54;;;;;;;5.82;4.93;;;;;;;;;;4966596;28;20473;-63
2022/08/17 02:32:22;;;;;;;5.50;5.00;;;;;;;;;;4965779;28;20308;-63
2022/08/17 02:34:47;;;;;;;5.63;5.22;;;;;;;;;;4966402;28;20049;-64
2022/08/17 02:37:12;;;;;;;5.80;5.38;;;;;;;;;;4965225;28;20458;-63
2022/08/17 02:39:37;;;;;;;5.50;5.10;;;;;;;;;;4965226;28;20042;-62
2022/08/17 02:42:03;;;;;;;5.03;4.63;;;;;;;;;;4964344;28;20046;-62
2022/08/17 02:44:29;;;;;;;5.18;4.82;;;;;;;;;;4965319;28;20625;-63
2022/08/17 02:46:54;;;;;;;5.57;5.07;;;;;;;;;;4963966;28;20031;-62
2022/08/17 02:49:19;;;;;;;5.50;5.10;;;;;;;;;;4957918;28;20141;-63
2022/08/17 02:51:45;;;;;;;5.60;5.20;;;;;;;;;;4963523;28;20373;-63
2022/08/17 02:54:10;;;;;;;6.25;5.65;;;;;;;;;;4958340;28;20034;-61
2022/08/17 02:56:35;;;;;;;5.60;5.10;;;;;;;;;;4962131;28;20081;-63
2022/08/17 02:59:00;;;;;;;5.35;4.95;;;;;;;;;;4964556;28;20062;-60
2022/08/17 03:01:26;;;;;;;5.47;5.05;;;;;;;;;;4964550;28;20039;-61
2022/08/17 03:03:52;;;;;;;5.38;4.88;;;;;;;;;;4965018;28;20024;-61
2022/08/17 03:06:17;;;;;;;6.00;5.50;;;;;;;;;;4965707;28;20097;-61
2022/08/17 03:08:42;;;;;;;6.43;5.10;;;;;;;;;;4959429;28;20039;-62
2022/08/17 03:11:07;;;;;;;5.72;5.32;;;;;;;;;;4959163;28;20031;-65
2022/08/17 03:13:36;;;;;;;5.20;4.80;;;;;;;;;;4964266;28;20027;-63
2022/08/17 03:16:01;;;;;;;8.48;4.80;;;;;;;;;;4965247;28;20027;-64
2022/08/17 03:18:27;;;;;;;4.70;4.30;;;;;;;;;;4965244;28;20035;-65
2022/08/17 03:20:53;;;;;;;4.93;4.57;;;;;;;;;;4964188;28;20386;-63
2022/08/17 03:23:19;;;;;;;5.63;5.18;;;;;;;;;;4964952;28;20110;-64
2022/08/17 03:25:45;;;;;;;6.43;5.22;;;;;;;;;;4965162;28;20172;-64
2022/08/17 03:28:13;;;;;;;5.22;4.82;;;;;;;;;;4964476;28;20035;-64
2022/08/17 03:30:39;;;;;;;5.82;5.32;;;;;;;;;;4959299;28;20312;-64
2022/08/17 03:33:05;;;;;;;5.13;4.72;;;;;;;;;;4959780;28;20062;-64
2022/08/17 03:35:32;;;;;;;5.53;5.13;;;;;;;;;;4962860;28;20319;-64
2022/08/17 03:37:58;;;;;;;5.72;5.10;;;;;;;;;;4959566;28;20039;-62
2022/08/17 03:40:23;;;;;;;5.25;4.90;;;;;;;;;;4962086;28;20077;-62
2022/08/17 03:42:52;;;;;;;5.03;4.72;;;;;;;;;;4964805;28;20113;-63
2022/08/17 03:56:40;;;;;;;5.40;5.00;;;;;;;;;;4965224;28;20030;-63
2022/08/17 03:58:59;;;;;;;5.88;5.43;;;;;;;;;;4965141;28;20119;-62
2022/08/17 04:01:25;;;;;;;5.68;5.28;;;;;;;;;;4963068;28;20034;-64
2022/08/17 04:03:51;;;;;;;5.28;4.93;;;;;;;;;;4958132;28;20026;-64
2022/08/17 04:06:19;;;;;;;5.53;5.03;;;;;;;;;;4961686;28;20366;-64
2022/08/17 04:08:44;;;;;;;5.82;5.05;;;;;;;;;;4958394;28;20031;-64
2022/08/17 04:11:10;;;;;;;5.00;4.60;;;;;;;;;;4960284;28;20073;-64
2022/08/17 04:13:35;;;;;;;5.20;4.82;;;;;;;;;;4963403;28;20027;-64
2022/08/17 04:16:00;;;;;;;6.13;5.63;;;;;;;;;;4958439;28;20078;-64
2022/08/17 04:18:26;;;;;;;6.00;5.43;;;;;;;;;;4957495;28;20039;-62
2022/08/17 04:20:51;;;;;;;5.65;5.15;;;;;;;;;;4960957;28;20026;-63
2022/08/17 04:23:17;;;;;;;5.40;5.00;;;;;;;;;;4957969;28;20027;-62
2022/08/17 04:25:44;;;;;;;6.10;4.93;;;;;;;;;;4961894;28;20078;-63
2022/08/17 04:28:09;;;;;;;5.40;5.00;;;;;;;;;;4939937;28;20122;-63
2022/08/17 04:30:35;;;;;;;5.80;5.25;;;;;;;;;;4947177;28;20027;-64
2022/08/17 04:33:20;;;;;;;5.43;5.03;;;;;;;;;;4960094;28;20058;-64
2022/08/17 04:35:45;;;;;;;;;;;;;;;;;;4958330;28;20429;-64
2022/08/17 04:38:14;;;;;;;5.32;4.93;;;;;;;;;;4964105;28;19917;-64
2022/08/17 04:43:25;;;;;;;5.93;5.43;;;;;;;;;;4958204;28;20096;-64
2022/08/17 04:45:52;;;;;;;5.60;5.20;;;;;;;;;;4961002;28;20262;-64
2022/08/17 04:48:17;;;;;;;5.43;5.03;;;;;;;;;;4963946;28;20453;-64
2022/08/17 04:50:44;;;;;;;7.55;5.13;;;;;;;;;;4959737;28;20045;-65
2022/08/17 04:53:10;;;;;;;6.68;5.13;;;;;;;;;;4956475;28;20027;-64
2022/08/17 04:55:36;;;;;;;5.78;5.28;;;;;;;;;;4957657;28;20019;-64
2022/08/17 04:58:01;;;;;;;6.82;6.22;;;;;;;;;;4956687;28;20036;-64
2022/08/17 05:00:26;;;;;;;4.95;4.65;;;;;;;;;;4959808;28;20126;-65
2022/08/17 05:02:52;;;;;;;5.63;5.20;;;;;;;;;;4958498;28;20118;-64
2022/08/17 05:05:22;;;;;;;5.13;4.72;;;;;;;;;;4959521;28;20042;-64
2022/08/17 05:07:49;;;;;;;8.65;4.80;;;;;;;;;;4958501;28;20035;-64
2022/08/17 05:10:14;;;;;;;5.25;4.85;;;;;;;;;;4957696;28;20046;-64
2022/08/17 05:12:40;;;;;;;5.82;5.43;;;;;;;;;;4962130;28;20719;-65
2022/08/17 05:15:14;;;;;;;6.05;5.50;;;;;;;;;;4955787;28;20034;-64
2022/08/17 05:17:41;;;;;;;6.07;5.32;;;;;;;;;;4960125;28;20049;-64
2022/08/17 05:20:07;;;;;;;6.20;5.13;;;;;;;;;;4956887;28;20027;-64
2022/08/17 05:22:32;;;;;;;6.80;4.72;;;;;;;;;;4959370;28;20491;-64
2022/08/17 05:24:57;;;;;;;6.72;5.05;;;;;;;;;;4956825;28;20576;-64
2022/08/17 05:27:23;;;;;;;5.20;4.82;;;;;;;;;;4958914;28;20486;-64
2022/08/17 05:29:48;;;;;;;5.35;4.90;;;;;;;;;;4964515;28;20035;-65
2022/08/17 05:32:21;;;;;;;5.82;5.22;;;;;;;;;;4962479;28;20388;-64
2022/08/17 05:34:46;;;;;;;5.65;5.15;;;;;;;;;;4957267;28;20165;-62
2022/08/17 05:37:11;;;;;;;6.90;4.65;;;;;;;;;;4961477;28;20027;-64
2022/08/17 05:39:36;;;;;;;6.18;5.45;;;;;;;;;;4937133;28;20038;-65
2022/08/17 05:42:02;;;;;;;5.50;5.07;;;;;;;;;;4957503;28;20038;-65
2022/08/17 05:44:27;;;;;;;6.28;4.80;;;;;;;;;;4960035;28;20035;-62
2022/08/17 05:46:53;;;;;;;5.20;4.57;;;;;;;;;;4956428;28;20449;-64
2022/08/17 05:49:22;;;;;;;4.78;4.38;;;;;;;;;;4960102;28;20035;-64
2022/08/17 05:52:11;;;;;;;4.90;4.60;;;;;;;;;;4957020;28;20607;-65
2022/08/17 05:54:55;;;;;;;7.35;5.13;;;;;;;;;;4942503;28;20594;-64
2022/08/17 05:57:29;;;;;;;5.43;5.13;;;;;;;;;;4958058;28;20093;-64
2022/08/17 06:00:00;;;;;;;4.80;4.50;;;;;;;;;;4959539;28;20053;-64
2022/08/17 06:02:28;;;;;;;5.20;4.70;;;;;;;;;;4957169;28;20027;-64
2022/08/17 06:05:12;;;;;;;4.65;4.25;;;;;;;;;;4960008;28;20027;-64
2022/08/17 06:08:00;;;;;;;4.65;4.25;;;;;;;;;;4957057;28;20939;-64
2022/08/17 06:10:32;;;;;;;5.90;4.35;;;;;;;;;;4845789;29;20053;-64
2022/08/17 06:13:00;;;;;;;5.13;4.00;;;;;;;;;;4842313;29;20041;-64
2022/08/17 06:15:38;;;;;;;4.10;3.80;;;;;;;;;;4844887;29;20045;-64
2022/08/17 06:18:06;;;;;;;4.95;4.10;;;;;;;;;;4833109;29;20030;-64
2022/08/17 06:20:37;;;;;;;4.20;3.78;;;;;;;;;;4842334;29;20078;-64
2022/08/17 06:23:04;;;;;;;4.68;4.00;;;;;;;;;;4834436;29;20026;-64
2022/08/17 06:25:30;;;;;;;4.75;4.45;;;;;;;;;;4843421;29;20045;-64
2022/08/17 06:28:03;;;;;;;4.10;3.80;;;;;;;;;;4848099;29;20041;-64
2022/08/17 06:30:36;;;;;;;4.82;4.35;;;;;;;;;;4849667;29;20151;-63
2022/08/17 06:33:12;;;;;;;4.38;3.97;;;;;;;;;;4845830;29;20118;-63
2022/08/17 06:35:44;;;;;;;10.43;5.53;;;;;;;;;;4843426;29;20049;-63
2022/08/17 06:38:22;;;;;;;4.05;3.75;;;;;;;;;;4848426;29;20157;-64
2022/08/17 06:41:22;;;;;;;4.10;3.83;;;;;;;;;;4846579;29;20576;-64
2022/08/17 06:43:51;;;;;;;4.32;4.03;;;;;;;;;;4814335;29;20652;-64
2022/08/17 06:46:33;;;;;;;4.60;4.15;;;;;;;;;;4811893;29;20053;-63
2022/08/17 06:49:01;;;;;;;4.65;4.25;;;;;;;;;;4880037;29;20064;-63
2022/08/17 06:51:26;;;;;;;4.10;3.63;;;;;;;;;;4877550;29;20045;-63
2022/08/17 06:53:54;;;;;;;5.38;4.15;;;;;;;;;;4879326;29;20037;-60
2022/08/17 06:56:27;;;;;;;4.10;3.70;;;;;;;;;;4883601;29;20114;-66
2022/08/17 06:58:55;;;;;;;5.05;4.75;;;;;;;;;;4883674;29;20510;-65
2022/08/17 07:01:23;;;;;;;4.55;4.35;;;;;;;;;;4883294;29;20549;-66
2022/08/17 07:03:53;;;;;;;4.25;3.85;;;;;;;;;;4882876;29;20116;-66
2022/08/17 07:06:41;;;;;;;4.43;4.13;;;;;;;;;;4877778;29;20129;-64
2022/08/17 07:09:11;;;;;;;4.15;3.80;;;;;;;;;;4867969;29;20636;-65
2022/08/17 07:11:39;;;;;;;4.57;4.28;;;;;;;;;;4878786;29;20361;-65
2022/08/17 07:14:04;;;;;;;4.60;4.30;;;;;;;;;;4867708;29;20037;-64
2022/08/17 07:16:32;;;;;;;4.75;4.35;;;;;;;;;;4883021;29;20100;-62
2022/08/17 07:18:58;;;;;;;5.32;4.75;;;;;;;;;;4961595;28;20043;-62
2022/08/17 07:21:27;;;;;;;4.00;3.75;;;;;;;;;;4964364;28;20039;-62
2022/08/17 07:24:07;;;;;;;3.83;3.60;;;;;;;;;;4960317;28;20027;-61
2022/08/17 07:26:32;;;;;;;3.80;3.47;;;;;;;;;;4960943;28;20026;-61
2022/08/17 07:28:59;;;;;;;5.30;4.85;;;;;;;;;;4958861;28;20507;-62
2022/08/17 07:31:25;;;;;;;4.65;4.35;;;;;;;;;;4958022;28;20023;-62
2022/08/17 07:33:58;;;;;;;6.03;4.03;;;;;;;;;;4962697;28;20065;-62
2022/08/17 07:36:24;;;;;;;4.00;3.70;;;;;;;;;;4957776;28;20086;-63
2022/08/17 07:38:56;;;;;;;4.45;4.15;;;;;;;;;;4959726;28;20432;-62
2022/08/17 07:41:22;;;;;;;5.28;4.78;;;;;;;;;;4958742;28;20142;-66
2022/08/17 07:43:49;;;;;;;4.75;4.18;;;;;;;;;;4958527;28;20043;-63
2022/08/17 07:49:31;;;;;;;4.50;4.25;;;;;;;;;;4958655;28;20084;-63
2022/08/17 07:51:58;;;;;;;4.72;4.25;;;;;;;;;;4960667;28;20588;-63
2022/08/17 07:54:44;;;;;;;5.05;4.65;;;;;;;;;;4957847;28;20929;-65
2022/08/17 07:57:09;;;;;;;5.65;5.13;;;;;;;;;;4963400;28;20038;-64
2022/08/17 07:59:36;;;;;;;5.25;4.80;;;;;;;;;;4963901;28;20031;-64
2022/08/17 08:02:12;;;;;;;4.50;4.20;;;;;;;;;;4964802;28;20034;-60
2022/08/17 08:04:42;;;;;;;4.85;4.40;;;;;;;;;;4937602;28;20170;-65
2022/08/17 08:07:16;;;;;;;5.20;4.78;;;;;;;;;;4942209;28;20031;-67
2022/08/17 08:09:42;;;;;;;6.05;4.88;;;;;;;;;;4961096;28;20540;-68
2022/08/17 08:12:28;;;;;;;5.15;4.75;;;;;;;;;;4958754;28;20051;-69
2022/08/17 08:14:55;;;;;;;5.75;5.00;;;;;;;;;;4960928;28;20485;-69
2022/08/17 08:17:30;;;;;;;4.82;4.53;;;;;;;;;;4958446;28;20129;-68
2022/08/17 08:19:56;;;;;;;4.97;4.63;;;;;;;;;;4959342;28;20470;-68
2022/08/17 08:22:27;;;;;;;10.10;5.30;;;;;;;;;;4956832;28;20089;-68
2022/08/17 08:25:02;;;;;;;8.57;5.78;;;;;;;;;;4960689;28;20322;-68
2022/08/17 08:27:27;;;;;;;;;;;;;;;;;;4963210;28;20152;-68
2022/08/17 08:30:04;;;;;;;4.93;4.20;;;;;;;;;;4962775;28;20269;-69
2022/08/17 08:32:30;;;;;;;4.82;4.50;;;;;;;;;;4963135;28;20309;-68
2022/08/17 08:35:25;;;;;;;6.85;4.60;;;;;;;;;;4957221;28;20479;-68
2022/08/17 08:37:50;;;;;;;;;;;;;;;;;;4882706;29;20289;-68
2022/08/17 08:40:25;;;;;;;5.95;4.68;;;;;;;;;;4880084;29;20599;-69
2022/08/17 08:43:09;;;;;;;5.15;4.85;;;;;;;;;;4881262;29;20048;-69
2022/08/17 08:45:36;;;;;;;5.40;5.00;;;;;;;;;;4879028;29;20077;-69
2022/08/17 08:48:02;;;;;;;5.45;5.05;;;;;;;;;;4880497;29;20045;-61
2022/08/17 08:50:39;;;;;;;5.50;5.00;;;;;;;;;;4884972;29;20024;-67
2022/08/17 08:53:07;;;;;;;5.07;4.70;;;;;;;;;;4884132;29;20128;-68
2022/08/17 08:55:51;;;;;;;4.90;4.60;;;;;;;;;;4885454;29;20036;-67
2022/08/17 08:58:19;;;;;;;5.10;4.70;;;;;;;;;;4880803;29;20476;-66
2022/08/17 09:00:47;;;;;;;5.32;4.93;;;;;;;;;;4879164;29;20036;-71
2022/08/17 09:03:12;;;;;;;5.15;4.70;;;;;;;;;;4885412;29;20100;-69
2022/08/17 09:05:47;;;;;;;4.97;4.63;;;;;;;;;;4880402;29;20032;-68
2022/08/17 09:08:12;;;;;;;;;;;;;;;;;;4884139;29;20052;-67
2022/08/17 09:10:48;;;;;;;6.28;5.78;;;;;;;;;;4879639;29;20298;-68
2022/08/17 09:13:28;;;;;;;5.43;4.68;;;;;;;;;;4886493;28;20032;-69
2022/08/17 09:15:58;;;;;;;5.15;4.53;;;;;;;;;;4962873;28;20105;-68
2022/08/17 09:18:23;;;;;;;5.55;5.15;;;;;;;;;;4962570;28;20035;-70
2022/08/17 09:20:51;;;;;;;5.50;5.10;;;;;;;;;;4955944;28;20023;-70
2022/08/17 09:23:25;;;;;;;4.72;4.32;;;;;;;;;;4959039;28;20026;-70
2022/08/17 09:25:56;;;;;;;4.82;4.45;;;;;;;;;;4938140;28;20022;-70
2022/08/17 09:28:38;;;;;;;7.35;5.63;;;;;;;;;;4962595;28;20049;-70
2022/08/17 09:31:32;;;;;;;5.65;5.28;;;;;;;;;;4960546;28;20031;-70
2022/08/17 09:33:58;;;;;;;5.47;4.97;;;;;;;;;;4933986;29;20059;-69
2022/08/17 09:36:29;;;;;;;6.53;5.97;;;;;;;;;;4940961;29;20035;-70
2022/08/17 09:39:21;;;;;;;5.82;5.43;;;;;;;;;;4937034;29;20552;-69
2022/08/17 09:41:50;;;;;;;6.45;5.95;;;;;;;;;;4938301;29;20046;-69
2022/08/17 09:44:22;;;;;;;6.05;5.55;;;;;;;;;;4943250;29;20478;-70
2022/08/17 09:46:51;;;;;;;7.03;6.53;;;;;;;;;;4940672;29;20054;-69
2022/08/17 09:49:35;;;;;;;7.35;6.65;;;;;;;;;;4935038;29;20033;-69
2022/08/17 09:52:13;;;;;;;6.82;6.28;;;;;;;;;;4941068;29;20035;-69
2022/08/17 09:54:39;;;;;;;7.55;5.82;;;;;;;;;;4936926;29;20118;-69
2022/08/17 09:57:23;;;;;;;6.95;6.55;;;;;;;;;;4936320;29;20369;-69
2022/08/17 10:00:14;;;;;;;7.80;6.47;;;;;;;;;;4942363;29;20035;-70
2022/08/17 10:02:59;;;;;;;5.88;5.47;;;;;;;;;;4941055;29;20039;-69
2022/08/17 10:05:27;;;;;;;6.90;5.45;;;;;;;;;;4944604;29;20016;-70
2022/08/17 10:08:12;;;;;;;6.13;5.50;;;;;;;;;;4918491;29;20043;-69
2022/08/17 10:10:52;;;;;;;5.70;5.40;;;;;;;;;;4938733;29;20042;-68
2022/08/17 10:13:21;;;;;;;8.70;7.18;;;;;;;;;;4940173;29;20575;-67
2022/08/17 10:16:00;;;;;;;10.95;9.07;;;;;;;;;;4940170;29;20139;-68
2022/08/17 10:18:33;;;;;;;13.23;8.95;;;;;;;;;;4941052;29;20058;-67
2022/08/17 10:26:33;;;;;;;6.05;5.65;;;;;;;;;;4940528;29;20031;-68
2022/08/17 10:29:17;;;;;;;6.82;6.32;;;;;;;;;;4943029;29;20071;-67
2022/08/17 10:32:02;;;;;;;8.77;7.38;;;;;;;;;;4944225;28;20464;-63
2022/08/17 10:34:34;;;;;;;8.70;8.05;;;;;;;;;;4962254;28;20038;-64
2022/08/17 10:37:18;;;;;;;9.55;8.60;;;;;;;;;;4959604;28;20050;-64
2022/08/17 10:39:56;;;;;;;6.78;6.30;;;;;;;;;;4960802;28;20078;-68
2022/08/17 10:42:35;;;;;;;6.57;5.95;;;;;;;;;;4960869;28;20404;-67
2022/08/17 10:45:04;;;;;;;7.75;6.95;;;;;;;;;;4958829;28;20054;-68
2022/08/17 10:47:48;;;;;;;6.75;6.22;;;;;;;;;;4962579;28;20034;-72
2022/08/17 10:50:32;;;;;;;5.28;4.78;;;;;;;;;;4958714;28;20269;-67
2022/08/17 10:52:58;;;;;;;6.30;5.80;;;;;;;;;;4962567;28;20094;-67
2022/08/17 10:55:24;;;;;;;7.03;6.47;;;;;;;;;;4960150;28;20027;-70
2022/08/17 10:57:49;;;;;;;7.55;7.05;;;;;;;;;;4960847;28;20023;-68
2022/08/17 11:00:15;;;;;;;7.25;6.63;;;;;;;;;;4948432;28;20089;-68
2022/08/17 11:02:51;;;;;;;6.85;6.25;;;;;;;;;;4963580;28;20018;-68
2022/08/17 11:05:35;;;;;;;7.13;6.53;;;;;;;;;;4957710;28;20590;-68
2022/08/17 11:08:06;;;;;;;6.18;5.57;;;;;;;;;;4963921;28;20530;-68
2022/08/17 11:10:31;;;;;;;6.93;6.22;;;;;;;;;;4959410;28;20442;-70
2022/08/17 11:13:02;;;;;;;6.97;6.55;;;;;;;;;;4958658;28;20035;-70
2022/08/17 11:15:51;;;;;;;5.72;5.35;;;;;;;;;;4964889;28;20550;-71
2022/08/17 11:18:16;;;;;;;6.28;5.93;;;;;;;;;;4958021;28;20058;-71
2022/08/17 11:20:51;;;;;;;5.75;5.35;;;;;;;;;;4961156;28;20106;-71
2022/08/17 11:23:23;;;;;;;6.38;5.85;;;;;;;;;;4959567;28;20020;-71
2022/08/17 11:25:56;;;;;;;5.85;5.32;;;;;;;;;;4960620;28;20038;-72
2022/08/17 11:28:26;;;;;;;5.90;5.38;;;;;;;;;;4959914;28;20026;-70
2022/08/17 11:31:08;;;;;;;6.05;5.43;;;;;;;;;;4958582;28;20037;-72
2022/08/17 11:33:33;;;;;;;6.25;5.85;;;;;;;;;;4960390;28;20054;-71
2022/08/17 11:36:15;;;;;;;5.20;4.90;;;;;;;;;;4959669;28;20074;-71
2022/08/17 11:38:56;;;;;;;7.47;5.57;;;;;;;;;;4961829;28;20261;-71
2022/08/17 11:41:27;;;;;;;6.25;5.68;;;;;;;;;;4958762;28;20041;-71
2022/08/17 11:43:57;;;;;;;6.40;5.82;;;;;;;;;;4960310;28;20385;-71
2022/08/17 11:51:32;;;;;;;6.50;6.10;;;;;;;;;;4957204;28;20022;-70
2022/08/17 11:52:34;;;;;;;6.50;5.43;;;;;;;;;;4952069;28;20037;-69
2022/08/17 11:54:59;;;;;;;6.07;5.68;;;;;;;;;;4962157;28;20075;-69
2022/08/17 11:57:24;;;;;;;5.65;5.30;;;;;;;;;;4958798;28;20297;-67
2022/08/17 11:59:50;;;;;;;6.15;5.40;;;;;;;;;;4955847;28;20084;-63
2022/08/17 12:02:21;;;;;;;6.03;5.53;;;;;;;;;;4960466;28;20097;-66
2022/08/17 12:05:01;;;;;;;7.03;5.95;;;;;;;;;;4963494;28;20341;-65
2022/08/17 12:07:30;;;;;;;6.63;6.15;;;;;;;;;;4957065;28;20072;-67
2022/08/17 12:09:57;;;;;;;6.05;5.55;;;;;;;;;;4958418;28;20039;-65
2022/08/17 12:12:31;;;;;;;6.30;5.80;;;;;;;;;;4947219;28;20489;-65
2022/08/17 12:14:58;;;;;;;6.30;5.80;;;;;;;;;;4961300;28;20110;-65
2022/08/17 12:17:28;;;;;;;6.22;5.78;;;;;;;;;;4945163;28;20389;-66
2022/08/17 12:19:53;;;;;;;6.35;5.70;;;;;;;;;;4961724;28;20120;-64
2022/08/17 12:22:24;;;;;;;6.72;6.32;;;;;;;;;;4961061;28;20144;-65
2022/08/17 12:25:09;;;;;;;7.28;5.85;;;;;;;;;;4941303;28;20136;-66
2022/08/17 12:27:35;;;;;;;6.20;5.80;;;;;;;;;;4960558;28;20023;-65
2022/08/17 12:30:03;;;;;;;7.22;6.55;;;;;;;;;;4956834;28;20129;-67
2022/08/17 12:32:32;;;;;;;6.05;5.55;;;;;;;;;;4961909;28;20043;-67
2022/08/17 12:34:57;;;;;;;5.28;4.85;;;;;;;;;;4960236;28;20022;-66
2022/08/17 12:37:30;;;;;;;5.75;5.35;;;;;;;;;;4959588;28;20479;-66
2022/08/17 12:40:00;;;;;;;5.88;5.47;;;;;;;;;;4957068;28;20073;-67
2022/08/17 12:42:28;;;;;;;6.28;5.68;;;;;;;;;;4962308;28;20031;-68
2022/08/17 12:44:54;;;;;;;6.57;6.07;;;;;;;;;;4962803;28;20063;-67
2022/08/17 12:47:19;;;;;;;6.65;6.07;;;;;;;;;;4962193;28;20035;-66
2022/08/17 12:49:47;;;;;;;6.07;5.57;;;;;;;;;;4957889;28;20046;-67
2022/08/17 12:52:14;;;;;;;7.22;5.95;;;;;;;;;;4956002;28;20027;-65
2022/08/17 12:54:54;;;;;;;6.28;5.85;;;;;;;;;;4960949;28;20109;-66
2022/08/17 12:57:25;;;;;;;6.13;5.53;;;;;;;;;;4962304;28;20030;-66
2022/08/17 12:59:57;;;;;;;7.57;6.93;;;;;;;;;;4959078;28;20046;-65
2022/08/17 13:02:31;;;;;;;21.60;15.75;;;;;;;;;;4956764;28;20468;-64
2022/08/17 13:04:58;;;;;;;7.93;6.18;;;;;;;;;;4959888;28;20364;-66
2022/08/17 13:07:27;;;;;;;6.25;5.85;;;;;;;;;;4962508;28;20027;-66
2022/08/17 13:09:56;;;;;;;6.00;5.50;;;;;;;;;;4962228;28;20579;-65
2022/08/17 13:12:25;;;;;;;6.72;6.25;;;;;;;;;;4959208;28;20531;-67
2022/08/17 13:14:50;;;;;;;6.30;5.80;;;;;;;;;;4957556;28;20069;-66
2022/08/17 13:17:24;;;;;;;6.15;5.85;;;;;;;;;;4959131;28;20133;-67
2022/08/17 13:19:49;;;;;;;8.63;6.55;;;;;;;;;;4955635;28;20493;-68
2022/08/17 13:22:17;;;;;;;6.13;5.43;;;;;;;;;;4957757;28;20187;-67
2022/08/17 13:24:52;;;;;;;6.18;5.80;;;;;;;;;;4954378;28;20027;-68
2022/08/17 13:27:25;;;;;;;9.63;6.05;;;;;;;;;;4957818;28;20206;-68
2022/08/17 13:30:04;;;;;;;5.72;5.38;;;;;;;;;;4963431;28;20046;-67
2022/08/17 13:32:29;;;;;;;6.43;5.93;;;;;;;;;;4954893;28;20051;-68
2022/08/17 13:34:56;;;;;;;5.72;5.32;;;;;;;;;;4959583;28;20038;-68
2022/08/17 13:39:49;;;;;;;5.95;5.57;;;;;;;;;;4959486;28;20422;-68
2022/08/17 13:42:31;;;;;;;9.10;6.95;;;;;;;;;;4964005;28;20031;-71
2022/08/17 13:44:57;;;;;;;5.85;5.32;;;;;;;;;;4961833;28;20393;-65
2022/08/17 13:47:23;;;;;;;8.45;5.20;;;;;;;;;;4981535;28;20018;-68
2022/08/17 13:49:49;;;;;;;6.50;6.00;;;;;;;;;;4981433;28;20038;-69
2022/08/17 13:52:49;;;;;;;5.78;5.32;;;;;;;;;;4967329;28;20648;-68
2022/08/17 13:55:16;;;;;;;5.47;5.15;;;;;;;;;;4907162;29;20028;-63
2022/08/17 13:57:49;;;;;;;5.43;5.13;;;;;;;;;;4901642;29;20032;-69
2022/08/17 14:00:28;;;;;;;5.80;5.50;;;;;;;;;;4900679;29;20623;-69
2022/08/17 14:02:54;;;;;;;6.40;5.95;;;;;;;;;;4903695;29;20494;-66
2022/08/17 14:05:19;;;;;;;6.35;5.85;;;;;;;;;;4905340;29;20067;-68
2022/08/17 14:07:52;;;;;;;6.43;5.93;;;;;;;;;;4907411;29;20578;-68
2022/08/17 14:10:18;;;;;;;6.00;5.53;;;;;;;;;;4903094;29;20055;-68
2022/08/17 14:12:44;;;;;;;6.90;6.45;;;;;;;;;;4899887;29;20499;-69
2022/08/17 14:15:11;;;;;;;6.88;6.07;;;;;;;;;;4903924;29;20059;-67
2022/08/17 14:17:37;;;;;;;6.20;5.78;;;;;;;;;;4903932;29;20597;-61
2022/08/17 14:20:03;;;;;;;6.13;5.63;;;;;;;;;;4900226;29;20034;-68
2022/08/17 14:22:30;;;;;;;8.27;6.35;;;;;;;;;;4902868;29;20040;-68
2022/08/17 14:24:56;;;;;;;6.38;5.65;;;;;;;;;;4898358;29;20079;-62
2022/08/17 14:27:21;;;;;;;10.88;6.35;;;;;;;;;;4901862;29;20626;-66
2022/08/17 14:29:47;;;;;;;6.65;6.05;;;;;;;;;;4943166;28;20168;-66
2022/08/17 14:32:17;;;;;;;5.63;5.20;;;;;;;;;;4958931;28;20081;-66
2022/08/17 14:34:43;;;;;;;7.47;5.82;;;;;;;;;;4962126;28;20158;-63
2022/08/17 14:37:08;;;;;;;6.38;5.82;;;;;;;;;;4958033;28;20031;-67
2022/08/17 14:39:34;;;;;;;8.57;5.85;;;;;;;;;;4963292;28;20385;-66
2022/08/17 14:41:59;;;;;;;5.40;5.10;;;;;;;;;;4960466;28;20030;-66
2022/08/17 14:44:24;;;;;;;14.15;7.43;;;;;;;;;;4962330;28;20258;-65
2022/08/17 14:46:53;;;;;;;13.48;7.03;;;;;;;;;;4936620;28;20089;-64
2022/08/17 14:49:19;;;;;;;7.72;6.00;;;;;;;;;;4960040;28;20067;-66
2022/08/17 14:51:45;;;;;;;5.97;5.57;;;;;;;;;;4960026;28;20416;-66
2022/08/17 14:54:11;;;;;;;6.35;5.88;;;;;;;;;;4959557;28;20023;-67
2022/08/17 14:56:37;;;;;;;5.30;4.90;;;;;;;;;;4960934;28;20019;-67
2022/08/17 14:59:02;;;;;;;6.30;5.90;;;;;;;;;;4957900;28;20370;-66
2022/08/17 15:01:28;;;;;;;7.28;5.60;;;;;;;;;;4958222;28;20023;-66
2022/08/17 15:03:53;;;;;;;5.80;5.15;;;;;;;;;;4959078;28;20027;-64
2022/08/17 15:06:18;;;;;;;5.93;5.43;;;;;;;;;;4958442;28;20050;-67
2022/08/17 15:08:44;;;;;;;6.90;6.28;;;;;;;;;;4938749;28;20126;-66
2022/08/17 15:11:13;;;;;;;6.73;6.10;;;;;;;;;;4961442;28;20563;-67
2022/08/17 15:13:39;;;;;;;6.53;5.93;;;;;;;;;;4959195;28;20823;-68
2022/08/17 15:16:05;;;;;;;6.05;5.55;;;;;;;;;;4959023;28;20026;-67
2022/08/17 15:18:30;;;;;;;6.07;5.68;;;;;;;;;;4958746;28;20500;-66
2022/08/17 15:20:55;;;;;;;5.85;5.53;;;;;;;;;;4960211;28;20462;-62
2022/08/17 15:23:21;;;;;;;6.78;6.20;;;;;;;;;;4960252;28;20027;-65
2022/08/17 15:25:48;;;;;;;6.30;5.90;;;;;;;;;;4960000;28;20023;-65
2022/08/17 15:28:14;;;;;;;7.93;7.28;;;;;;;;;;4965223;28;20030;-62